createdAt,value
2024-05-09T00:01:16.449Z,61.58
2024-05-09T00:03:48.157Z,61.27
2024-05-09T00:06:20.513Z,62.05
2024-05-09T00:08:51.947Z,61.98
2024-05-09T00:11:23.578Z,61.91
2024-05-09T00:13:55.290Z,61.64
2024-05-09T00:16:26.847Z,61.69
2024-05-09T00:18:58.421Z,62.15
2024-05-09T00:21:30.008Z,62.46
2024-05-09T00:24:01.480Z,61.97
2024-05-09T00:26:33.112Z,62.09
2024-05-09T00:29:04.655Z,61.97
2024-05-09T00:31:36.142Z,62.36
2024-05-09T00:34:07.675Z,62.84
2024-05-09T00:36:39.200Z,62.35
2024-05-09T00:39:10.634Z,62.59
2024-05-09T00:41:42.333Z,62.50
2024-05-09T00:44:13.951Z,62.59
2024-05-09T00:46:45.512Z,62.76
2024-05-09T00:49:17.167Z,63.03
2024-05-09T00:51:49.903Z,62.65
2024-05-09T00:54:22.447Z,62.68
2024-05-09T00:56:54.372Z,63.13
2024-05-09T00:59:26.025Z,62.99
2024-05-09T01:01:59.351Z,63.21
2024-05-09T01:04:30.945Z,63.01
2024-05-09T01:07:02.466Z,63.12
2024-05-09T01:09:34.686Z,63.60
2024-05-09T01:12:06.536Z,63.23
2024-05-09T01:14:38.177Z,63.57
2024-05-09T01:17:09.820Z,63.10
2024-05-09T01:19:42.231Z,63.49
2024-05-09T01:22:13.786Z,63.21
2024-05-09T01:24:45.253Z,63.41
2024-05-09T01:27:16.692Z,63.70
2024-05-09T01:29:48.156Z,63.78
2024-05-09T01:32:19.712Z,63.65
2024-05-09T01:34:51.296Z,63.56
2024-05-09T01:37:23.691Z,63.53
2024-05-09T01:39:55.131Z,63.59
2024-05-09T01:42:27.008Z,63.73
2024-05-09T01:44:58.487Z,63.68
2024-05-09T01:47:30.259Z,64.02
2024-05-09T01:50:02.141Z,63.95
2024-05-09T01:52:38.476Z,64.02
2024-05-09T01:55:09.890Z,63.82
2024-05-09T01:57:41.324Z,63.72
2024-05-09T02:00:15.722Z,63.87
2024-05-09T02:02:50.271Z,63.91
2024-05-09T02:05:21.985Z,64.08
2024-05-09T02:07:53.595Z,64.25
2024-05-09T02:10:31.771Z,64.10
2024-05-09T02:13:05.864Z,64.33
2024-05-09T02:15:37.361Z,64.14
2024-05-09T02:18:09.972Z,64.03
2024-05-09T02:20:43.300Z,64.18
2024-05-09T02:23:15.440Z,64.26
2024-05-09T02:25:47.027Z,64.65
2024-05-09T02:28:20.774Z,64.43
2024-05-09T02:30:52.212Z,64.48
2024-05-09T02:33:23.949Z,64.39
2024-05-09T02:35:55.520Z,64.43
2024-05-09T02:38:27.118Z,64.40
2024-05-09T02:40:58.617Z,64.58
2024-05-09T02:43:30.060Z,64.76
2024-05-09T02:46:01.713Z,64.80
2024-05-09T02:48:33.228Z,64.77
2024-05-09T02:51:04.919Z,64.73
2024-05-09T02:53:36.465Z,64.91
2024-05-09T02:56:08.010Z,65.04
2024-05-09T02:58:39.569Z,64.78
2024-05-09T03:01:11.232Z,65.11
2024-05-09T03:03:45.182Z,65.13
2024-05-09T03:06:16.707Z,64.94
2024-05-09T03:08:48.469Z,65.16
2024-05-09T03:11:24.034Z,65.19
2024-05-09T03:13:55.624Z,65.15
2024-05-09T03:16:27.386Z,64.88
2024-05-09T03:18:58.867Z,65.23
2024-05-09T03:21:30.351Z,65.34
2024-05-09T03:24:02.862Z,65.19
2024-05-09T03:26:34.466Z,65.23
2024-05-09T03:29:05.998Z,65.09
2024-05-09T03:31:38.876Z,65.15
2024-05-09T03:34:11.299Z,65.32
2024-05-09T03:36:45.600Z,65.33
2024-05-09T03:39:17.137Z,65.37
2024-05-09T03:41:48.583Z,65.53
2024-05-09T03:44:20.080Z,65.57
2024-05-09T03:46:51.700Z,65.56
2024-05-09T03:49:23.251Z,65.34
2024-05-09T03:51:54.754Z,65.43
2024-05-09T03:54:27.493Z,65.69
2024-05-09T03:56:58.985Z,65.52
2024-05-09T03:59:30.516Z,65.52
2024-05-09T04:02:02.201Z,65.56
2024-05-09T04:04:33.747Z,65.76
2024-05-09T04:07:05.326Z,65.77
2024-05-09T04:09:36.788Z,65.58
2024-05-09T04:12:08.403Z,65.81
2024-05-09T04:14:40.012Z,65.56
2024-05-09T04:17:11.620Z,65.72
2024-05-09T04:19:43.068Z,65.48
2024-05-09T04:22:14.508Z,65.82
2024-05-09T04:24:45.983Z,65.60
2024-05-09T04:27:17.424Z,65.66
2024-05-09T04:29:48.879Z,65.67
2024-05-09T04:32:20.434Z,65.74
2024-05-09T04:34:52.033Z,65.43
2024-05-09T04:37:23.533Z,65.41
2024-05-09T04:39:55.116Z,65.75
2024-05-09T04:42:26.601Z,65.25
2024-05-09T04:44:58.810Z,65.62
2024-05-09T04:47:30.590Z,65.67
2024-05-09T04:50:02.586Z,65.57
2024-05-09T04:52:34.108Z,65.20
2024-05-09T04:55:06.052Z,64.96
2024-05-09T04:57:37.513Z,65.28
2024-05-09T05:00:14.732Z,65.48
2024-05-09T05:02:53.253Z,65.07
2024-05-09T05:05:24.874Z,64.73
2024-05-09T05:07:56.838Z,65.09
2024-05-09T05:10:33.998Z,64.65
2024-05-09T05:13:19.995Z,64.79
2024-05-09T05:15:56.829Z,64.94
2024-05-09T05:18:29.628Z,64.76
2024-05-09T05:21:01.334Z,64.91
2024-05-09T05:23:32.952Z,64.79
2024-05-09T05:26:05.279Z,64.78
2024-05-09T05:28:36.831Z,64.50
2024-05-09T05:31:08.272Z,64.13
2024-05-09T05:33:39.780Z,63.72
2024-05-09T05:36:11.291Z,63.57
2024-05-09T05:38:43.015Z,63.07
2024-05-09T05:41:14.589Z,63.14
2024-05-09T05:43:46.158Z,63.22
2024-05-09T05:46:17.642Z,63.17
2024-05-09T05:48:49.427Z,63.00
2024-05-09T05:51:21.087Z,63.24
2024-05-09T05:53:52.660Z,63.15
2024-05-09T05:56:24.194Z,63.15
2024-05-09T05:58:55.702Z,63.44
2024-05-09T06:01:27.289Z,63.15
2024-05-09T06:03:59.048Z,63.03
2024-05-09T06:06:30.505Z,62.68
2024-05-09T06:09:01.954Z,63.24
2024-05-09T06:11:33.486Z,62.87
2024-05-09T06:14:05.543Z,62.16
2024-05-09T06:16:37.130Z,62.12
2024-05-09T06:19:08.658Z,61.36
2024-05-09T06:21:40.160Z,60.35
2024-05-09T06:24:11.690Z,59.41
2024-05-09T06:26:44.374Z,58.86
2024-05-09T06:29:15.900Z,58.11
2024-05-09T06:31:47.472Z,57.45
2024-05-09T06:34:19.479Z,56.60
2024-05-09T06:36:50.981Z,56.74
2024-05-09T06:39:23.472Z,55.95
2024-05-09T06:41:54.938Z,55.41
2024-05-09T06:44:26.852Z,55.11
2024-05-09T06:46:59.846Z,54.53
2024-05-09T06:49:32.738Z,54.30
2024-05-09T06:52:04.623Z,54.04
2024-05-09T06:54:37.638Z,54.08
2024-05-09T06:57:09.117Z,53.97
2024-05-09T06:59:40.679Z,53.79
2024-05-09T07:02:12.290Z,53.29
2024-05-09T07:04:43.800Z,53.20
2024-05-09T07:07:15.235Z,53.17
2024-05-09T07:09:46.727Z,53.13
2024-05-09T07:12:18.362Z,52.72
2024-05-09T07:14:50.510Z,51.97
2024-05-09T07:17:22.011Z,52.08
2024-05-09T07:19:53.793Z,51.50
2024-05-09T07:22:25.527Z,51.39
2024-05-09T07:24:57.138Z,51.39
2024-05-09T07:27:28.683Z,50.79
2024-05-09T07:30:00.819Z,50.42
2024-05-09T07:32:32.478Z,49.77
2024-05-09T07:35:04.196Z,49.97
2024-05-09T07:37:35.702Z,49.20
2024-05-09T07:40:11.948Z,49.21
2024-05-09T07:42:47.143Z,49.00
2024-05-09T07:53:37.273Z,47.03
2024-05-09T07:56:06.402Z,46.95
2024-05-09T07:58:38.645Z,46.99
2024-05-09T08:01:10.139Z,46.44
2024-05-09T08:03:42.907Z,46.40
2024-05-09T08:06:14.565Z,45.37
2024-05-09T08:08:47.025Z,45.71
2024-05-09T08:11:20.354Z,45.11
2024-05-09T08:13:51.898Z,44.52
2024-05-09T08:16:23.828Z,44.45
2024-05-09T08:18:55.522Z,44.46
2024-05-09T08:21:27.054Z,44.14
2024-05-09T08:23:58.511Z,43.61
2024-05-09T08:26:30.052Z,43.83
2024-05-09T08:29:01.512Z,43.92
2024-05-09T08:31:37.987Z,43.23
2024-05-09T08:34:10.046Z,42.73
2024-05-09T08:36:42.331Z,42.08
2024-05-09T08:39:13.834Z,42.23
2024-05-09T08:41:49.561Z,41.38
2024-05-09T08:44:21.176Z,42.73
2024-05-09T08:46:54.258Z,41.91
2024-05-09T08:49:26.970Z,41.96
2024-05-09T08:51:58.722Z,40.87
2024-05-09T08:54:30.555Z,40.82
2024-05-09T08:57:04.730Z,40.69
2024-05-09T08:59:42.604Z,40.91
2024-05-09T09:02:14.876Z,40.64
2024-05-09T09:05:03.065Z,38.63
2024-05-09T09:07:35.136Z,39.15
2024-05-09T09:10:08.580Z,38.35
2024-05-09T09:12:40.555Z,37.94
2024-05-09T09:15:12.163Z,37.66
2024-05-09T09:17:58.159Z,37.09
2024-05-09T09:20:36.410Z,37.42
2024-05-09T09:23:08.869Z,37.45
2024-05-09T09:25:40.714Z,37.30
2024-05-09T09:28:12.618Z,37.13
2024-05-09T09:30:44.430Z,37.03
2024-05-09T09:33:17.416Z,37.46
2024-05-09T09:35:48.914Z,37.17
2024-05-09T09:38:23.200Z,36.52
2024-05-09T09:40:54.776Z,36.82
2024-05-09T09:43:26.781Z,36.98
2024-05-09T09:46:00.681Z,36.61
2024-05-09T09:48:33.859Z,36.98
2024-05-09T09:51:07.762Z,36.53
2024-05-09T09:53:39.929Z,36.85
2024-05-09T09:56:11.956Z,36.36
2024-05-09T09:58:43.971Z,36.30
2024-05-09T10:01:15.525Z,35.48
2024-05-09T10:03:47.485Z,35.66
2024-05-09T10:06:19.518Z,35.63
2024-05-09T10:08:51.552Z,35.65
2024-05-09T10:11:23.831Z,35.99
2024-05-09T10:13:57.360Z,35.26
2024-05-09T10:16:32.392Z,35.01
2024-05-09T10:19:04.139Z,35.23
2024-05-09T10:21:46.267Z,34.47
2024-05-09T10:24:19.064Z,34.64
2024-05-09T10:26:56.568Z,34.60
2024-05-09T10:29:28.125Z,35.00
2024-05-09T10:31:59.686Z,34.83
2024-05-09T10:34:34.638Z,34.49
2024-05-09T10:37:06.257Z,34.76
2024-05-09T10:39:38.806Z,34.85
2024-05-09T10:42:10.333Z,34.89
2024-05-09T10:44:42.514Z,34.49
2024-05-09T10:47:15.021Z,34.37
2024-05-09T10:49:47.015Z,34.70
2024-05-09T10:52:22.438Z,34.12
2024-05-09T10:54:54.434Z,34.22
2024-05-09T10:57:27.090Z,34.02
2024-05-09T10:59:59.605Z,33.74
2024-05-09T11:02:31.785Z,32.93
2024-05-09T11:05:03.542Z,33.08
2024-05-09T11:07:35.118Z,33.58
2024-05-09T11:10:09.850Z,33.08
2024-05-09T11:12:45.909Z,32.66
2024-05-09T11:15:17.455Z,32.55
2024-05-09T11:17:49.058Z,33.00
2024-05-09T11:20:26.924Z,33.08
2024-05-09T11:23:06.088Z,33.89
2024-05-09T11:25:37.530Z,33.88
2024-05-09T11:28:09.089Z,34.44
2024-05-09T11:30:40.742Z,34.59
2024-05-09T11:33:13.405Z,34.27
2024-05-09T11:35:46.485Z,34.13
2024-05-09T11:38:17.967Z,33.52
2024-05-09T11:40:49.441Z,33.82
2024-05-09T11:43:21.144Z,34.52
2024-05-09T11:45:53.165Z,34.54
2024-05-09T11:48:25.795Z,34.04
2024-05-09T11:50:58.030Z,33.42
2024-05-09T11:53:29.585Z,33.53
2024-05-09T11:56:01.138Z,33.84
2024-05-09T11:58:34.636Z,33.79
2024-05-09T12:01:06.492Z,33.72
2024-05-09T12:03:38.345Z,33.90
2024-05-09T12:06:10.194Z,33.50
2024-05-09T12:08:41.738Z,33.00
2024-05-09T12:11:13.904Z,33.23
2024-05-09T12:13:45.443Z,32.61
2024-05-09T12:16:17.126Z,32.41
2024-05-09T12:18:48.864Z,32.40
2024-05-09T12:21:20.443Z,31.90
2024-05-09T12:23:51.975Z,31.81
2024-05-09T12:26:23.557Z,31.65
2024-05-09T12:28:54.996Z,32.10
2024-05-09T12:31:26.655Z,31.65
2024-05-09T12:34:00.291Z,31.74
2024-05-09T12:36:31.964Z,31.98
2024-05-09T12:39:06.220Z,32.08
2024-05-09T12:41:37.692Z,32.58
2024-05-09T12:44:09.120Z,33.31
2024-05-09T12:46:40.660Z,33.07
2024-05-09T12:49:13.807Z,32.85
2024-05-09T12:51:47.127Z,33.09
2024-05-09T12:54:18.627Z,32.91
2024-05-09T12:56:50.607Z,32.43
2024-05-09T12:59:22.082Z,32.26
2024-05-09T13:01:53.585Z,32.03
2024-05-09T13:04:25.381Z,31.59
2024-05-09T13:06:57.587Z,31.37
2024-05-09T13:09:29.183Z,31.23
2024-05-09T13:12:00.751Z,31.85
2024-05-09T13:14:32.270Z,31.59
2024-05-09T13:17:04.159Z,31.39
2024-05-09T13:19:35.662Z,31.70
2024-05-09T13:22:07.222Z,32.26
2024-05-09T13:24:38.734Z,32.27
2024-05-09T13:27:10.338Z,32.40
2024-05-09T13:29:44.301Z,32.64
2024-05-09T13:32:15.988Z,32.86
2024-05-09T13:34:47.585Z,32.89
2024-05-09T13:37:19.206Z,32.35
2024-05-09T13:39:50.923Z,32.93
2024-05-09T13:42:22.443Z,32.64
2024-05-09T13:44:54.339Z,32.85
2024-05-09T13:47:25.927Z,32.98
2024-05-09T13:49:57.862Z,32.81
2024-05-09T13:52:29.288Z,32.81
2024-05-09T13:55:00.795Z,33.01
2024-05-09T13:57:32.391Z,33.06
2024-05-09T14:00:07.013Z,32.94
2024-05-09T14:02:39.496Z,32.74
2024-05-09T14:05:11.261Z,32.54
2024-05-09T14:07:43.934Z,32.29
2024-05-09T14:10:22.967Z,32.31
2024-05-09T14:13:01.136Z,32.53
2024-05-09T14:15:32.899Z,32.41
2024-05-09T14:18:04.945Z,32.05
2024-05-09T14:20:36.474Z,31.87
2024-05-09T14:23:08.065Z,31.58
2024-05-09T14:25:42.707Z,31.81
2024-05-09T14:28:15.427Z,31.57
2024-05-09T14:30:47.014Z,31.86
2024-05-09T14:33:23.526Z,31.63
2024-05-09T14:35:55.459Z,31.49
2024-05-09T14:38:27.309Z,31.61
2024-05-09T14:40:59.013Z,31.89
2024-05-09T14:43:30.766Z,31.97
2024-05-09T14:46:02.446Z,32.36
2024-05-09T14:48:34.130Z,32.32
2024-05-09T14:51:05.932Z,32.44
2024-05-09T14:53:37.406Z,32.55
2024-05-09T14:56:09.293Z,33.10
2024-05-09T14:58:40.917Z,33.77
2024-05-09T15:01:12.477Z,34.41
2024-05-09T15:03:44.261Z,34.94
2024-05-09T15:06:17.040Z,35.48
2024-05-09T15:08:56.730Z,35.95
2024-05-09T15:11:28.374Z,36.39
2024-05-09T15:13:59.882Z,36.52
2024-05-09T15:16:31.490Z,36.67
2024-05-09T15:19:03.532Z,37.11
2024-05-09T15:21:35.171Z,36.99
2024-05-09T15:24:06.707Z,37.17
2024-05-09T15:26:38.290Z,37.32
2024-05-09T15:29:10.173Z,37.69
2024-05-09T15:31:41.724Z,37.33
2024-05-09T15:34:13.303Z,37.36
2024-05-09T15:36:47.895Z,37.38
2024-05-09T15:39:19.441Z,37.66
2024-05-09T15:41:56.058Z,38.02
2024-05-09T15:44:27.639Z,38.50
2024-05-09T15:46:59.123Z,38.98
2024-05-09T15:49:30.901Z,39.71
2024-05-09T15:52:02.614Z,39.37
2024-05-09T15:54:34.156Z,40.35
2024-05-09T15:57:07.126Z,40.24
2024-05-09T15:59:38.860Z,40.83
2024-05-09T16:02:11.543Z,40.38
2024-05-09T16:04:43.476Z,41.04
2024-05-09T16:07:15.110Z,41.20
2024-05-09T16:09:46.599Z,41.33
2024-05-09T16:12:18.099Z,41.70
2024-05-09T16:14:50.795Z,41.62
2024-05-09T16:17:22.900Z,42.20
2024-05-09T16:19:54.712Z,42.49
2024-05-09T16:22:26.498Z,43.15
2024-05-09T16:24:58.082Z,43.75
2024-05-09T16:27:29.668Z,43.69
2024-05-09T16:30:04.070Z,44.33
2024-05-09T16:32:40.801Z,44.21
2024-05-09T16:35:12.684Z,44.50
2024-05-09T16:37:44.215Z,44.95
2024-05-09T16:40:24.950Z,45.06
2024-05-09T16:43:05.898Z,45.35
2024-05-09T16:45:39.394Z,45.65
2024-05-09T16:48:12.199Z,45.95
2024-05-09T16:50:44.111Z,46.02
2024-05-09T16:53:15.735Z,45.88
2024-05-09T16:55:47.256Z,46.44
2024-05-09T16:58:19.269Z,46.24
2024-05-09T17:00:51.161Z,46.66
2024-05-09T17:03:23.595Z,46.48
2024-05-09T17:05:55.529Z,46.97
2024-05-09T17:08:27.087Z,46.87
2024-05-09T17:10:58.599Z,47.30
2024-05-09T17:13:32.220Z,46.70
2024-05-09T17:16:04.220Z,47.19
2024-05-09T17:18:35.999Z,47.42
2024-05-09T17:21:07.552Z,47.50
2024-05-09T17:23:39.415Z,47.63
2024-05-09T17:26:11.103Z,47.73
2024-05-09T17:28:43.002Z,47.44
2024-05-09T17:31:14.559Z,47.60
2024-05-09T17:33:46.503Z,47.97
2024-05-09T17:36:19.740Z,48.11
2024-05-09T17:38:51.265Z,48.65
2024-05-09T17:41:22.726Z,48.34
2024-05-09T17:43:54.326Z,47.98
2024-05-09T17:46:25.966Z,48.46
2024-05-09T17:49:00.410Z,48.74
2024-05-09T17:51:32.507Z,49.03
2024-05-09T17:54:03.960Z,48.53
2024-05-09T17:56:35.497Z,48.92
2024-05-09T17:59:10.029Z,49.28
2024-05-09T18:01:42.925Z,49.06
2024-05-09T18:04:14.573Z,49.15
2024-05-09T18:06:46.184Z,49.77
2024-05-09T18:09:17.731Z,49.44
2024-05-09T18:11:49.293Z,49.88
2024-05-09T18:14:20.802Z,49.36
2024-05-09T18:16:52.311Z,49.68
2024-05-09T18:19:23.835Z,49.77
2024-05-09T18:21:55.466Z,49.76
2024-05-09T18:24:26.945Z,49.67
2024-05-09T18:26:59.194Z,49.97
2024-05-09T18:29:30.785Z,49.60
2024-05-09T18:32:02.287Z,49.40
2024-05-09T18:34:33.843Z,49.89
2024-05-09T18:37:05.384Z,50.13
2024-05-09T18:39:37.017Z,50.41
2024-05-09T18:42:08.712Z,50.37
2024-05-09T18:44:40.272Z,50.38
2024-05-09T18:47:11.820Z,50.38
2024-05-09T18:49:43.489Z,50.45
2024-05-09T18:52:15.558Z,50.67
2024-05-09T18:54:47.751Z,51.24
2024-05-09T18:57:19.248Z,50.57
2024-05-09T18:59:51.061Z,51.32
2024-05-09T19:02:22.675Z,51.06
2024-05-09T19:04:54.349Z,51.24
2024-05-09T19:07:25.898Z,50.98
2024-05-09T19:09:57.525Z,51.20
2024-05-09T19:12:29.023Z,51.51
2024-05-09T19:15:00.451Z,51.45
2024-05-09T19:17:32.197Z,51.81
2024-05-09T19:20:05.751Z,51.40
2024-05-09T19:22:37.466Z,51.92
2024-05-09T19:25:08.998Z,51.43
2024-05-09T19:27:42.339Z,51.47
2024-05-09T19:30:21.076Z,51.56
2024-05-09T19:32:57.159Z,51.40
2024-05-09T19:35:28.678Z,52.10
2024-05-09T19:38:00.597Z,52.06
2024-05-09T19:40:33.917Z,52.03
2024-05-09T19:43:07.048Z,52.71
2024-05-09T19:45:38.888Z,52.43
2024-05-09T19:48:10.824Z,52.52
2024-05-09T19:50:44.507Z,53.21
2024-05-09T19:53:16.641Z,53.09
2024-05-09T19:55:48.152Z,52.91
2024-05-09T19:58:20.895Z,53.36
2024-05-09T20:00:52.535Z,52.92
2024-05-09T20:03:24.116Z,53.39
2024-05-09T20:05:55.786Z,53.63
2024-05-09T20:08:27.319Z,53.90
2024-05-09T20:10:58.824Z,53.81
2024-05-09T20:13:30.327Z,54.33
2024-05-09T20:16:01.844Z,54.24
2024-05-09T20:18:33.534Z,54.55
2024-05-09T20:21:06.482Z,54.44
2024-05-09T20:23:38.126Z,54.79
2024-05-09T20:26:09.680Z,54.39
2024-05-09T20:28:41.532Z,54.91
2024-05-09T20:31:20.863Z,54.56
2024-05-09T20:33:52.690Z,54.81
2024-05-09T20:36:24.192Z,55.15
2024-05-09T20:38:55.663Z,54.86
2024-05-09T20:41:27.648Z,54.94
2024-05-09T20:44:02.056Z,55.29
2024-05-09T20:46:33.542Z,55.05
2024-05-09T20:49:05.232Z,55.60
2024-05-09T20:51:37.017Z,55.57
2024-05-09T20:54:08.479Z,55.37
2024-05-09T20:56:40.078Z,55.78
2024-05-09T20:59:11.886Z,55.60
2024-05-09T21:01:48.084Z,56.09
2024-05-09T21:04:20.453Z,55.71
2024-05-09T21:06:52.087Z,56.12
2024-05-09T21:09:25.693Z,56.59
2024-05-09T21:11:57.288Z,56.21
2024-05-09T21:14:28.803Z,56.56
2024-05-09T21:17:00.519Z,56.54
2024-05-09T21:19:32.061Z,57.08
2024-05-09T21:22:03.681Z,56.89
2024-05-09T21:24:35.327Z,56.83
2024-05-09T21:27:06.920Z,56.66
2024-05-09T21:29:38.397Z,57.10
2024-05-09T21:32:09.973Z,57.47
2024-05-09T21:34:41.671Z,57.93
2024-05-09T21:37:13.295Z,57.81
2024-05-09T21:39:44.841Z,58.00
2024-05-09T21:42:16.330Z,57.65
2024-05-09T21:44:47.937Z,58.28
2024-05-09T21:47:19.431Z,57.97
2024-05-09T21:49:50.946Z,57.98
2024-05-09T21:52:22.551Z,58.55
2024-05-09T21:54:54.036Z,58.57
2024-05-09T21:57:25.583Z,58.04
2024-05-09T21:59:57.036Z,58.49
2024-05-09T22:02:28.772Z,58.32
2024-05-09T22:05:00.598Z,58.69
2024-05-09T22:07:32.227Z,58.18
2024-05-09T22:10:06.398Z,58.90
2024-05-09T22:12:41.290Z,58.86
2024-05-09T22:15:12.769Z,58.56
2024-05-09T22:17:44.412Z,58.43
2024-05-09T22:20:22.257Z,59.00
2024-05-09T22:23:00.388Z,58.59
2024-05-09T22:25:32.578Z,58.60
2024-05-09T22:28:05.376Z,58.69
2024-05-09T22:30:39.842Z,59.03
2024-05-09T22:33:12.579Z,59.20
2024-05-09T22:35:44.358Z,58.99
2024-05-09T22:38:15.855Z,59.22
2024-05-09T22:40:49.598Z,59.00
2024-05-09T22:43:23.917Z,59.25
2024-05-09T22:45:56.894Z,59.52
2024-05-09T22:48:28.497Z,59.21
2024-05-09T22:51:00.588Z,59.13
2024-05-09T22:53:32.047Z,58.99
2024-05-09T22:56:03.652Z,59.29
2024-05-09T22:58:35.121Z,59.52
2024-05-09T23:01:07.122Z,59.63
2024-05-09T23:03:38.800Z,59.47
2024-05-09T23:06:10.369Z,59.96
2024-05-09T23:08:41.795Z,59.39
2024-05-09T23:11:13.573Z,59.61
2024-05-09T23:13:45.230Z,59.52
2024-05-09T23:16:16.742Z,59.56
2024-05-09T23:18:48.324Z,59.97
2024-05-09T23:21:19.821Z,59.66
2024-05-09T23:23:51.239Z,59.91
2024-05-09T23:26:22.720Z,60.15
2024-05-09T23:28:54.162Z,59.92
2024-05-09T23:31:25.700Z,60.03
2024-05-09T23:33:57.549Z,60.08
2024-05-09T23:36:29.311Z,60.54
2024-05-09T23:39:00.803Z,59.99
2024-05-09T23:41:32.297Z,59.91
2024-05-09T23:44:03.860Z,60.65
2024-05-09T23:46:35.567Z,60.35
2024-05-09T23:49:07.202Z,60.00
2024-05-09T23:51:38.831Z,60.28
2024-05-09T23:54:10.335Z,60.40
2024-05-09T23:56:41.779Z,60.18
2024-05-09T23:59:13.221Z,60.20
